createdAt,value
2022-11-08T00:02:13.087Z,77.28
2022-11-08T00:04:56.644Z,76.98
2022-11-08T00:07:58.519Z,76.98
2022-11-08T00:11:00.419Z,77.56
2022-11-08T00:14:01.756Z,77.75
2022-11-08T00:16:45.272Z,78.22
2022-11-08T00:19:28.732Z,77.50
2022-11-08T00:22:12.932Z,77.90
2022-11-08T00:24:56.321Z,76.63
2022-11-08T00:27:39.746Z,77.89
2022-11-08T00:30:23.131Z,77.08
2022-11-08T00:33:06.502Z,78.09
2022-11-08T00:35:49.880Z,78.40
2022-11-08T00:38:33.265Z,77.70
2022-11-08T00:41:16.663Z,77.48
2022-11-08T00:44:00.090Z,78.00
2022-11-08T00:46:43.866Z,78.02
2022-11-08T00:49:27.334Z,77.51
2022-11-08T00:52:10.832Z,76.83
2022-11-08T00:54:54.249Z,76.87
2022-11-08T00:57:57.968Z,75.63
2022-11-08T01:00:41.434Z,77.08
2022-11-08T01:03:25.953Z,77.00
2022-11-08T01:06:12.687Z,77.67
2022-11-08T01:08:56.845Z,77.23
2022-11-08T01:11:40.432Z,78.95
2022-11-08T01:14:23.874Z,78.83
2022-11-08T01:17:07.244Z,79.14
2022-11-08T01:19:50.676Z,78.67
2022-11-08T01:22:34.046Z,79.38
2022-11-08T01:25:17.482Z,78.47
2022-11-08T01:28:00.859Z,78.71
2022-11-08T01:30:45.001Z,78.48
2022-11-08T01:33:28.363Z,79.68
2022-11-08T01:36:17.001Z,78.68
2022-11-08T01:39:00.410Z,78.99
2022-11-08T01:41:43.810Z,79.08
2022-11-08T01:44:27.262Z,79.00
2022-11-08T01:47:10.745Z,80.09
2022-11-08T01:50:16.372Z,79.69
2022-11-08T01:53:00.156Z,81.29
2022-11-08T01:55:44.094Z,80.43
2022-11-08T01:58:32.008Z,81.49
2022-11-08T02:01:15.775Z,81.38
2022-11-08T02:04:00.687Z,81.33
2022-11-08T02:06:44.676Z,82.25
2022-11-08T02:09:28.544Z,80.42
2022-11-08T02:12:14.113Z,80.22
2022-11-08T02:14:57.493Z,81.38
2022-11-08T02:17:40.883Z,81.79
2022-11-08T02:20:24.320Z,82.17
2022-11-08T02:23:26.856Z,82.49
2022-11-08T02:26:10.433Z,81.13
2022-11-08T02:28:53.966Z,81.89
2022-11-08T02:31:37.428Z,81.93
2022-11-08T02:34:30.624Z,81.24
2022-11-08T02:37:18.956Z,81.04
2022-11-08T02:40:02.613Z,81.50
2022-11-08T02:42:46.019Z,80.85
2022-11-08T02:45:29.411Z,80.76
2022-11-08T02:48:13.703Z,80.47
2022-11-08T02:50:57.097Z,81.23
2022-11-08T02:53:40.483Z,80.59
2022-11-08T02:56:24.236Z,81.09
2022-11-08T02:59:07.599Z,81.63
2022-11-08T03:01:51.759Z,81.58
2022-11-08T03:04:35.292Z,81.28
2022-11-08T03:07:24.533Z,80.60
2022-11-08T03:10:08.571Z,82.03
2022-11-08T03:12:56.617Z,82.66
2022-11-08T03:15:40.288Z,81.50
2022-11-08T03:18:23.676Z,82.03
2022-11-08T03:21:07.047Z,81.77
2022-11-08T03:23:50.439Z,81.79
2022-11-08T03:26:34.039Z,82.02
2022-11-08T03:29:17.508Z,81.14
2022-11-08T03:32:00.892Z,82.23
2022-11-08T03:34:44.328Z,81.64
2022-11-08T03:37:27.756Z,81.81
2022-11-08T03:40:11.998Z,83.26
2022-11-08T03:42:57.682Z,82.95
2022-11-08T03:45:41.247Z,81.74
2022-11-08T03:48:24.676Z,83.95
2022-11-08T03:51:08.059Z,83.69
2022-11-08T03:53:51.487Z,83.42
2022-11-08T03:56:34.840Z,83.41
2022-11-08T03:59:18.222Z,83.29
2022-11-08T04:02:01.779Z,82.21
2022-11-08T04:04:45.260Z,82.47
2022-11-08T04:07:28.797Z,82.74
2022-11-08T04:10:13.599Z,81.58
2022-11-08T04:13:19.517Z,81.58
2022-11-08T04:16:02.997Z,81.57
2022-11-08T04:19:04.821Z,80.67
2022-11-08T04:21:52.425Z,82.45
2022-11-08T04:24:35.821Z,80.85
2022-11-08T04:27:19.209Z,79.85
2022-11-08T04:30:02.659Z,80.77
2022-11-08T04:32:46.025Z,81.59
2022-11-08T04:35:31.109Z,82.96
2022-11-08T04:38:14.776Z,82.13
2022-11-08T04:41:09.743Z,82.28
2022-11-08T04:43:55.981Z,83.26
2022-11-08T04:46:39.399Z,82.91
2022-11-08T04:49:22.803Z,82.33
2022-11-08T04:52:06.199Z,83.92
2022-11-08T04:54:49.586Z,82.22
2022-11-08T04:57:32.981Z,81.55
2022-11-08T05:00:17.686Z,81.71
2022-11-08T05:03:02.967Z,81.77
2022-11-08T05:05:46.680Z,81.71
2022-11-08T05:08:30.718Z,81.78
2022-11-08T05:11:21.738Z,83.05
2022-11-08T05:14:05.430Z,81.38
2022-11-08T05:16:49.147Z,80.06
2022-11-08T05:19:55.803Z,81.24
2022-11-08T05:22:58.411Z,81.00
2022-11-08T05:25:44.173Z,81.45
2022-11-08T05:28:27.780Z,82.04
2022-11-08T05:31:12.539Z,81.52
2022-11-08T05:33:56.195Z,82.10
2022-11-08T05:36:40.000Z,82.77
2022-11-08T05:39:25.452Z,82.50
2022-11-08T05:42:11.864Z,81.50
2022-11-08T05:44:55.617Z,82.73
2022-11-08T05:47:39.341Z,85.47
2022-11-08T05:50:23.179Z,84.41
2022-11-08T05:53:06.814Z,84.18
2022-11-08T05:55:50.961Z,83.66
2022-11-08T05:58:36.289Z,83.39
2022-11-08T06:01:21.510Z,83.82
2022-11-08T06:04:05.372Z,85.76
2022-11-08T06:06:51.659Z,84.72
2022-11-08T06:09:35.436Z,85.90
2022-11-08T06:12:21.025Z,85.35
2022-11-08T06:15:07.968Z,84.72
2022-11-08T06:17:51.640Z,86.21
2022-11-08T06:20:35.316Z,86.16
2022-11-08T06:23:19.140Z,85.87
2022-11-08T06:26:04.370Z,85.18
2022-11-08T06:28:47.885Z,85.63
2022-11-08T06:31:31.368Z,87.09
2022-11-08T06:34:14.983Z,86.28
2022-11-08T06:37:00.392Z,85.58
2022-11-08T06:39:44.937Z,84.35
2022-11-08T06:42:28.581Z,83.08
2022-11-08T06:45:12.309Z,83.57
2022-11-08T06:48:01.488Z,85.17
2022-11-08T06:50:53.498Z,83.82
2022-11-08T06:53:37.205Z,85.12
2022-11-08T06:56:20.883Z,85.01
2022-11-08T06:59:04.559Z,84.99
2022-11-08T07:01:48.452Z,85.41
2022-11-08T07:04:32.081Z,85.72
2022-11-08T07:07:15.902Z,84.67
2022-11-08T07:10:03.955Z,86.76
2022-11-08T07:12:48.685Z,86.98
2022-11-08T07:15:35.256Z,86.97
2022-11-08T07:18:20.208Z,85.93
2022-11-08T07:21:04.011Z,86.27
2022-11-08T07:23:48.678Z,87.16
2022-11-08T07:26:32.277Z,87.40
2022-11-08T07:29:16.273Z,87.20
2022-11-08T07:31:59.915Z,87.56
2022-11-08T07:34:43.537Z,87.10
2022-11-08T07:37:27.176Z,88.12
2022-11-08T07:40:11.824Z,87.87
2022-11-08T07:43:14.811Z,88.45
2022-11-08T07:46:02.198Z,89.15
2022-11-08T07:48:45.649Z,88.33
2022-11-08T07:51:29.079Z,88.79
2022-11-08T07:54:12.688Z,89.02
2022-11-08T07:56:56.209Z,88.34
2022-11-08T07:59:39.801Z,86.92
2022-11-08T08:02:24.120Z,87.36
2022-11-08T08:05:08.274Z,87.22
2022-11-08T08:07:52.049Z,87.41
2022-11-08T08:10:36.480Z,87.57
2022-11-08T08:13:20.684Z,87.57
2022-11-08T08:16:05.064Z,86.59
2022-11-08T08:18:56.377Z,86.65
2022-11-08T08:21:40.374Z,87.04
2022-11-08T08:24:23.895Z,86.64
2022-11-08T08:27:07.311Z,86.32
2022-11-08T08:29:51.050Z,85.96
2022-11-08T08:32:34.809Z,85.92
2022-11-08T08:35:18.587Z,85.17
2022-11-08T08:38:02.745Z,85.53
2022-11-08T08:40:46.540Z,85.38
2022-11-08T08:43:34.370Z,85.44
2022-11-08T08:46:19.408Z,85.46
2022-11-08T08:49:03.003Z,84.29
2022-11-08T08:51:48.498Z,83.63
2022-11-08T08:54:32.270Z,83.23
2022-11-08T08:57:16.212Z,82.06
2022-11-08T09:03:06.461Z,81.07
2022-11-08T09:05:50.175Z,81.07
2022-11-08T09:08:33.658Z,78.51
2022-11-08T09:11:18.236Z,79.63
2022-11-08T09:14:01.673Z,79.45
2022-11-08T09:16:45.205Z,78.94
2022-11-08T09:19:28.750Z,77.31
2022-11-08T09:22:12.813Z,77.26
2022-11-08T09:24:56.300Z,76.15
2022-11-08T09:27:39.843Z,76.88
2022-11-08T09:30:23.473Z,75.38
2022-11-08T09:33:07.362Z,75.94
2022-11-08T09:35:53.878Z,75.66
2022-11-08T09:38:37.265Z,75.52
2022-11-08T09:41:36.009Z,75.15
2022-11-08T09:44:50.305Z,74.30
2022-11-08T09:47:41.011Z,73.69
2022-11-08T09:50:37.736Z,74.67
2022-11-08T09:54:03.634Z,73.36
2022-11-08T09:56:48.375Z,72.74
2022-11-08T09:59:54.604Z,72.29
2022-11-08T10:02:37.960Z,72.66
2022-11-08T10:05:21.760Z,71.61
2022-11-08T10:08:26.008Z,71.71
2022-11-08T10:11:44.033Z,70.87
2022-11-08T10:14:52.340Z,70.64
2022-11-08T10:17:58.390Z,70.22
2022-11-08T10:20:57.481Z,69.80
2022-11-08T10:23:53.056Z,69.52
2022-11-08T10:26:42.811Z,69.69
2022-11-08T10:29:43.204Z,69.65
2022-11-08T10:32:30.405Z,70.86
2022-11-08T10:35:44.627Z,70.00
2022-11-08T10:38:47.591Z,69.25
2022-11-08T10:42:01.175Z,69.84
2022-11-08T10:44:44.812Z,69.51
2022-11-08T10:47:33.365Z,69.75
2022-11-08T10:50:26.076Z,69.50
2022-11-08T10:53:25.659Z,69.35
2022-11-08T10:56:09.144Z,68.98
2022-11-08T10:58:52.616Z,68.57
2022-11-08T11:01:37.045Z,69.07
2022-11-08T11:04:31.997Z,68.53
2022-11-08T11:07:33.105Z,67.73
2022-11-08T11:10:32.529Z,68.08
2022-11-08T11:13:18.784Z,68.22
2022-11-08T11:16:05.448Z,67.58
2022-11-08T11:18:52.983Z,68.15
2022-11-08T11:21:43.350Z,67.37
2022-11-08T11:24:26.818Z,66.25
2022-11-08T11:27:31.181Z,65.99
2022-11-08T11:30:25.657Z,66.24
2022-11-08T11:33:08.931Z,65.54
2022-11-08T11:36:13.873Z,65.86
2022-11-08T11:39:12.345Z,65.96
2022-11-08T11:42:44.344Z,65.57
2022-11-08T11:46:10.568Z,65.06
2022-11-08T11:49:01.369Z,64.30
2022-11-08T11:51:44.783Z,63.37
2022-11-08T11:54:32.466Z,63.72
2022-11-08T11:58:02.016Z,62.99
2022-11-08T12:00:59.191Z,62.16
2022-11-08T12:04:10.556Z,62.91
2022-11-08T12:07:09.112Z,62.67
2022-11-08T12:10:55.128Z,62.39
2022-11-08T12:13:56.738Z,61.83
2022-11-08T12:17:06.647Z,63.21
2022-11-08T12:20:14.506Z,62.37
2022-11-08T12:23:38.822Z,61.75
2022-11-08T12:26:27.902Z,61.93
2022-11-08T12:29:32.429Z,62.39
2022-11-08T12:32:45.941Z,62.97
2022-11-08T12:35:58.867Z,61.90
2022-11-08T12:39:03.916Z,61.76
2022-11-08T12:42:19.744Z,61.65
2022-11-08T12:45:49.439Z,60.90
2022-11-08T12:48:55.963Z,61.13
2022-11-08T12:52:24.199Z,61.45
2022-11-08T12:55:23.981Z,61.35
2022-11-08T12:58:44.418Z,61.24
2022-11-08T13:01:27.960Z,61.32
2022-11-08T13:04:40.752Z,60.39
2022-11-08T13:07:43.545Z,60.70
2022-11-08T13:10:52.644Z,59.72
2022-11-08T13:13:54.256Z,60.31
2022-11-08T13:16:41.960Z,61.32
2022-11-08T13:19:50.110Z,61.64
2022-11-08T13:22:40.586Z,60.54
2022-11-08T13:25:23.890Z,60.36
2022-11-08T13:28:39.048Z,60.53
2022-11-08T13:31:31.010Z,61.37
2022-11-08T13:34:33.230Z,61.07
2022-11-08T13:38:19.713Z,60.96
2022-11-08T13:41:24.368Z,61.66
2022-11-08T13:44:55.295Z,62.36
2022-11-08T13:47:39.986Z,62.65
2022-11-08T13:50:29.081Z,62.60
2022-11-08T13:53:24.804Z,62.56
2022-11-08T13:56:09.672Z,62.61
2022-11-08T13:58:53.407Z,62.83
2022-11-08T14:01:45.976Z,62.71
2022-11-08T14:04:41.197Z,62.79
2022-11-08T14:07:36.065Z,62.90
2022-11-08T14:10:46.607Z,62.37
2022-11-08T14:14:14.907Z,62.94
2022-11-08T14:17:23.618Z,63.24
2022-11-08T14:20:38.002Z,63.49
2022-11-08T14:23:40.635Z,63.95
2022-11-08T14:26:25.547Z,63.54
2022-11-08T14:29:09.013Z,64.17
2022-11-08T14:32:19.350Z,64.19
2022-11-08T14:35:25.612Z,64.96
2022-11-08T14:38:16.064Z,64.56
2022-11-08T14:41:05.974Z,64.99
2022-11-08T14:43:53.342Z,65.00
2022-11-08T14:46:40.072Z,64.59
2022-11-08T14:49:34.507Z,64.80
2022-11-08T14:52:22.729Z,65.23
2022-11-08T14:55:13.569Z,65.91
2022-11-08T14:57:56.967Z,65.30
2022-11-08T15:00:45.498Z,66.02
2022-11-08T15:03:32.143Z,65.58
2022-11-08T15:06:15.551Z,65.02
2022-11-08T15:09:00.062Z,66.58
2022-11-08T15:11:52.978Z,66.62
2022-11-08T15:14:46.151Z,66.71
2022-11-08T15:17:38.426Z,66.55
2022-11-08T15:20:22.449Z,66.81
2022-11-08T15:23:39.376Z,67.55
2022-11-08T15:26:24.652Z,67.12
2022-11-08T15:29:14.078Z,67.25
2022-11-08T15:32:01.950Z,67.76
2022-11-08T15:34:46.924Z,68.24
2022-11-08T15:37:42.701Z,68.04
2022-11-08T15:40:30.245Z,68.63
2022-11-08T15:43:33.395Z,68.35
2022-11-08T15:46:38.205Z,67.91
2022-11-08T15:49:28.573Z,68.65
2022-11-08T15:52:11.956Z,68.42
2022-11-08T15:54:55.326Z,68.59
2022-11-08T15:57:43.138Z,69.24
2022-11-08T16:00:34.587Z,69.72
2022-11-08T16:03:24.308Z,70.25
2022-11-08T16:06:12.216Z,69.97
2022-11-08T16:08:55.603Z,70.48
2022-11-08T16:11:40.501Z,70.11
2022-11-08T16:14:25.221Z,70.28
2022-11-08T16:17:15.003Z,71.08
2022-11-08T16:19:58.701Z,71.91
2022-11-08T16:22:42.091Z,71.26
2022-11-08T16:25:28.270Z,71.33
2022-11-08T16:28:34.793Z,70.48
2022-11-08T16:31:18.509Z,70.87
2022-11-08T16:34:02.135Z,71.01
2022-11-08T16:36:48.760Z,71.09
2022-11-08T16:39:32.507Z,71.71
2022-11-08T16:42:15.990Z,72.06
2022-11-08T16:44:59.574Z,71.77
2022-11-08T16:47:47.885Z,72.69
2022-11-08T16:50:31.424Z,72.07
2022-11-08T16:53:21.806Z,72.88
2022-11-08T16:56:05.205Z,71.84
2022-11-08T16:58:48.797Z,71.64
2022-11-08T17:01:34.420Z,72.43
2022-11-08T17:04:17.910Z,72.40
2022-11-08T17:07:01.471Z,72.62
2022-11-08T17:09:44.974Z,72.37
2022-11-08T17:12:28.484Z,72.87
2022-11-08T17:15:22.010Z,73.12
2022-11-08T17:18:05.640Z,72.24
2022-11-08T17:20:49.627Z,72.76
2022-11-08T17:23:33.173Z,72.55
2022-11-08T17:26:16.727Z,71.55
2022-11-08T17:29:00.409Z,72.28
2022-11-08T17:31:43.904Z,72.30
2022-11-08T17:34:27.720Z,71.81
2022-11-08T17:37:11.346Z,71.83
2022-11-08T17:39:55.746Z,71.86
2022-11-08T17:42:39.259Z,70.90
2022-11-08T17:45:22.734Z,71.54
2022-11-08T17:48:06.245Z,72.08
2022-11-08T17:50:49.897Z,71.92
2022-11-08T17:53:34.554Z,71.60
2022-11-08T17:56:18.350Z,72.04
2022-11-08T17:59:02.839Z,71.43
2022-11-08T18:01:46.484Z,71.47
2022-11-08T18:04:30.467Z,71.50
2022-11-08T18:07:14.034Z,72.15
2022-11-08T18:09:57.603Z,71.32
2022-11-08T18:12:41.107Z,71.48
2022-11-08T18:15:24.551Z,72.06
2022-11-08T18:18:08.023Z,72.39
2022-11-08T18:20:55.609Z,72.77
2022-11-08T18:23:45.636Z,72.39
2022-11-08T18:26:29.007Z,72.29
2022-11-08T18:29:12.426Z,72.31
2022-11-08T18:31:56.127Z,72.21
2022-11-08T18:34:39.608Z,72.97
2022-11-08T18:37:23.351Z,73.00
2022-11-08T18:40:07.830Z,73.14
2022-11-08T18:42:51.221Z,72.81
2022-11-08T18:45:34.920Z,72.65
2022-11-08T18:48:18.424Z,72.60
2022-11-08T18:51:07.554Z,72.73
2022-11-08T18:53:52.588Z,72.85
2022-11-08T18:56:36.239Z,73.28
2022-11-08T18:59:19.676Z,72.10
2022-11-08T19:02:03.404Z,73.51
2022-11-08T19:04:47.457Z,73.41
2022-11-08T19:07:30.973Z,73.05
2022-11-08T19:10:17.364Z,73.45
2022-11-08T19:13:00.991Z,74.28
2022-11-08T19:15:45.079Z,73.33
2022-11-08T19:18:30.394Z,73.67
2022-11-08T19:21:26.652Z,73.94
2022-11-08T19:24:11.134Z,74.04
2022-11-08T19:26:54.670Z,74.12
2022-11-08T19:29:38.330Z,73.44
2022-11-08T19:32:23.317Z,73.30
2022-11-08T19:35:07.407Z,72.95
2022-11-08T19:37:50.911Z,73.31
2022-11-08T19:40:34.444Z,73.48
2022-11-08T19:43:18.888Z,72.67
2022-11-08T19:46:06.703Z,72.55
2022-11-08T19:48:51.928Z,71.98
2022-11-08T19:51:36.726Z,72.58
2022-11-08T19:54:20.315Z,72.06
2022-11-08T19:57:05.471Z,72.05
2022-11-08T19:59:51.080Z,71.46
2022-11-08T20:02:34.549Z,71.67
2022-11-08T20:05:19.946Z,71.94
2022-11-08T20:08:06.168Z,71.83
2022-11-08T20:10:51.537Z,71.98
2022-11-08T20:13:35.027Z,71.76
2022-11-08T20:16:23.663Z,71.27
2022-11-08T20:19:14.708Z,71.62
2022-11-08T20:21:58.358Z,72.23
2022-11-08T20:24:41.793Z,71.19
2022-11-08T20:27:25.442Z,72.04
2022-11-08T20:30:09.880Z,71.52
2022-11-08T20:32:54.297Z,71.84
2022-11-08T20:35:38.777Z,70.83
2022-11-08T20:38:22.624Z,70.67
2022-11-08T20:41:11.307Z,70.62
2022-11-08T20:43:54.781Z,71.37
2022-11-08T20:46:39.110Z,71.00
2022-11-08T20:49:22.708Z,70.61
2022-11-08T20:52:06.491Z,71.09
2022-11-08T20:54:50.124Z,70.87
2022-11-08T20:57:33.811Z,70.91
2022-11-08T21:00:24.005Z,70.57
2022-11-08T21:03:18.929Z,70.75
2022-11-08T21:06:07.029Z,70.35
2022-11-08T21:09:02.724Z,70.93
2022-11-08T21:11:51.775Z,71.93
2022-11-08T21:14:35.273Z,71.94
2022-11-08T21:17:22.793Z,71.33
2022-11-08T21:20:06.949Z,71.17
2022-11-08T21:22:50.375Z,70.37
2022-11-08T21:25:34.141Z,70.81
2022-11-08T21:28:17.884Z,70.84
2022-11-08T21:31:02.148Z,69.82
2022-11-08T21:33:46.030Z,70.25
2022-11-08T21:36:29.625Z,71.23
2022-11-08T21:39:14.079Z,71.51
2022-11-08T21:41:57.459Z,71.04
2022-11-08T21:44:40.855Z,70.64
2022-11-08T21:47:24.237Z,70.38
2022-11-08T21:50:08.049Z,70.31
2022-11-08T21:52:52.080Z,71.55
2022-11-08T21:55:35.454Z,70.92
2022-11-08T21:58:19.425Z,70.85
2022-11-08T22:01:07.090Z,71.02
2022-11-08T22:03:50.502Z,70.48
2022-11-08T22:06:35.602Z,70.41
2022-11-08T22:09:19.763Z,70.67
2022-11-08T22:12:03.198Z,70.39
2022-11-08T22:14:46.701Z,70.33
2022-11-08T22:17:30.078Z,69.85
2022-11-08T22:20:13.494Z,69.50
2022-11-08T22:22:56.882Z,69.34
2022-11-08T22:25:42.861Z,68.60
2022-11-08T22:28:26.274Z,68.84
2022-11-08T22:31:09.706Z,69.77
2022-11-08T22:33:53.131Z,69.58
2022-11-08T22:36:44.337Z,69.83
2022-11-08T22:39:28.636Z,69.63
2022-11-08T22:42:12.063Z,69.16
2022-11-08T22:44:55.457Z,69.24
2022-11-08T22:47:38.885Z,69.08
2022-11-08T22:50:22.422Z,69.06
2022-11-08T22:53:06.427Z,69.33
2022-11-08T22:55:50.162Z,69.52
2022-11-08T22:58:34.205Z,68.99
2022-11-08T23:01:17.703Z,68.55
2022-11-08T23:04:01.416Z,68.46
2022-11-08T23:06:44.871Z,69.04
2022-11-08T23:09:28.325Z,69.12
2022-11-08T23:12:31.994Z,69.32
2022-11-08T23:15:33.898Z,68.74
2022-11-08T23:18:17.278Z,68.32
2022-11-08T23:21:19.174Z,69.02
2022-11-08T23:24:20.624Z,69.12
2022-11-08T23:27:23.554Z,68.96
2022-11-08T23:30:27.440Z,68.95
2022-11-08T23:33:10.953Z,68.20
2022-11-08T23:36:11.214Z,68.93
2022-11-08T23:38:56.224Z,68.76
2022-11-08T23:41:57.926Z,69.03
2022-11-08T23:44:41.339Z,68.61
2022-11-08T23:47:24.703Z,69.29
2022-11-08T23:50:08.772Z,69.24
2022-11-08T23:52:52.129Z,68.97
2022-11-08T23:55:35.476Z,69.21
2022-11-08T23:58:19.093Z,68.99
